createdAt,value
2023-03-03T00:01:47.622Z,5.03
2023-03-03T00:04:15.386Z,5.30
2023-03-03T00:06:43.502Z,6.07
2023-03-03T00:09:11.169Z,5.57
2023-03-03T00:11:40.700Z,5.77
2023-03-03T00:14:18.978Z,7.57
2023-03-03T00:16:50.032Z,6.33
2023-03-03T00:19:20.037Z,5.30
2023-03-03T00:21:48.597Z,5.50
2023-03-03T00:24:22.023Z,5.63
2023-03-03T00:26:52.358Z,8.03
2023-03-03T00:29:35.967Z,6.33
2023-03-03T00:32:22.585Z,7.60
2023-03-03T00:34:51.144Z,5.80
2023-03-03T00:37:25.131Z,6.17
2023-03-03T00:39:53.045Z,5.83
2023-03-03T00:42:22.169Z,6.10
2023-03-03T00:44:50.815Z,5.63
2023-03-03T00:47:28.204Z,6.10
2023-03-03T00:50:03.168Z,4.30
2023-03-03T00:52:31.136Z,7.03
2023-03-03T00:54:59.509Z,6.57
2023-03-03T00:57:28.858Z,6.43
2023-03-03T00:59:57.353Z,7.23
2023-03-03T01:02:25.223Z,5.77
2023-03-03T01:04:56.500Z,5.97
2023-03-03T01:07:25.766Z,6.33
2023-03-03T01:09:53.795Z,6.60
2023-03-03T01:12:22.194Z,5.87
2023-03-03T01:14:53.201Z,6.50
2023-03-03T01:17:20.859Z,7.03
2023-03-03T01:19:48.898Z,7.27
2023-03-03T01:22:17.376Z,6.77
2023-03-03T01:24:45.405Z,8.07
2023-03-03T01:27:13.228Z,6.83
2023-03-03T01:29:41.156Z,6.53
2023-03-03T01:32:12.601Z,6.07
2023-03-03T01:34:40.684Z,6.27
2023-03-03T01:37:09.695Z,6.93
2023-03-03T01:39:37.511Z,5.40
2023-03-03T01:42:05.241Z,5.03
2023-03-03T01:44:33.132Z,5.67
2023-03-03T01:47:04.066Z,5.47
2023-03-03T01:49:38.342Z,5.33
2023-03-03T01:52:11.680Z,8.73
2023-03-03T01:54:41.751Z,5.53
2023-03-03T01:57:12.456Z,4.73
2023-03-03T01:59:44.021Z,5.60
2023-03-03T02:02:11.930Z,5.47
2023-03-03T02:04:41.276Z,6.13
2023-03-03T02:07:11.263Z,5.20
2023-03-03T02:09:44.212Z,5.17
2023-03-03T02:12:13.965Z,6.23
2023-03-03T02:14:42.008Z,4.70
2023-03-03T02:17:10.021Z,5.77
2023-03-03T02:19:41.498Z,5.20
2023-03-03T02:22:10.830Z,6.00
2023-03-03T02:24:40.820Z,4.77
2023-03-03T02:27:10.164Z,5.77
2023-03-03T02:29:37.985Z,6.87
2023-03-03T02:32:06.251Z,7.80
2023-03-03T02:34:44.875Z,6.97
2023-03-03T02:37:13.226Z,5.87
2023-03-03T02:39:41.266Z,6.07
2023-03-03T02:42:14.244Z,6.07
2023-03-03T02:44:42.817Z,8.37
2023-03-03T02:47:10.797Z,5.97
2023-03-03T02:49:38.881Z,7.47
2023-03-03T02:52:10.064Z,6.90
2023-03-03T02:54:38.492Z,6.97
2023-03-03T02:57:07.708Z,6.97
2023-03-03T02:59:37.327Z,7.57
2023-03-03T03:02:05.064Z,6.63
2023-03-03T03:04:33.008Z,7.30
2023-03-03T03:07:01.060Z,7.00
2023-03-03T03:09:28.895Z,7.27
2023-03-03T03:11:57.034Z,5.97
2023-03-03T03:14:24.880Z,6.97
2023-03-03T03:16:54.144Z,7.63
2023-03-03T03:19:22.198Z,7.00
2023-03-03T03:21:50.133Z,7.93
2023-03-03T03:24:18.322Z,8.73
2023-03-03T03:26:46.239Z,7.57
2023-03-03T03:29:14.206Z,7.73
2023-03-03T03:31:43.822Z,8.50
2023-03-03T03:34:13.777Z,8.57
2023-03-03T03:36:41.680Z,10.43
2023-03-03T03:39:10.045Z,11.50
2023-03-03T03:41:37.962Z,9.33
2023-03-03T03:44:06.139Z,11.07
2023-03-03T03:46:33.908Z,9.00
2023-03-03T03:49:02.654Z,10.20
2023-03-03T03:51:34.084Z,10.77
2023-03-03T03:54:03.252Z,12.67
2023-03-03T03:56:30.985Z,12.83
2023-03-03T03:58:58.647Z,11.87
2023-03-03T04:01:26.799Z,11.20
2023-03-03T04:03:54.633Z,11.50
2023-03-03T04:06:22.905Z,12.87
2023-03-03T04:08:53.078Z,12.77
2023-03-03T04:11:21.615Z,13.10
2023-03-03T04:13:49.698Z,13.93
2023-03-03T04:16:17.876Z,11.60
2023-03-03T04:18:46.755Z,13.73
2023-03-03T04:21:15.194Z,14.37
2023-03-03T04:23:43.665Z,12.67
2023-03-03T04:26:12.981Z,11.47
2023-03-03T04:28:41.159Z,13.80
2023-03-03T04:31:09.291Z,13.93
2023-03-03T04:33:37.208Z,16.27
2023-03-03T04:36:05.269Z,13.90
2023-03-03T04:38:33.372Z,17.93
2023-03-03T04:41:01.051Z,17.73
2023-03-03T04:43:30.519Z,16.80
2023-03-03T04:45:58.417Z,19.70
2023-03-03T04:48:26.622Z,18.77
2023-03-03T04:50:54.357Z,16.00
2023-03-03T04:53:22.605Z,16.83
2023-03-03T04:55:51.384Z,19.40
2023-03-03T04:58:19.847Z,18.67
2023-03-03T05:00:49.767Z,17.60
2023-03-03T05:03:18.288Z,20.07
2023-03-03T05:05:47.526Z,19.57
2023-03-03T05:08:15.433Z,19.63
2023-03-03T05:10:44.794Z,20.03
2023-03-03T05:13:17.391Z,16.33
2023-03-03T05:15:46.556Z,16.60
2023-03-03T05:18:15.893Z,20.83
2023-03-03T05:20:43.917Z,17.07
2023-03-03T05:23:12.157Z,24.77
2023-03-03T05:25:41.398Z,21.03
2023-03-03T05:28:09.374Z,19.37
2023-03-03T05:30:37.612Z,20.33
2023-03-03T05:33:05.811Z,20.43
2023-03-03T05:35:35.659Z,20.20
2023-03-03T05:38:05.411Z,15.70
2023-03-03T05:40:34.316Z,14.33
2023-03-03T05:43:02.435Z,18.43
2023-03-03T05:45:30.198Z,15.83
2023-03-03T05:47:57.886Z,13.20
2023-03-03T05:50:25.664Z,13.77
2023-03-03T05:52:55.196Z,17.67
2023-03-03T05:55:23.573Z,14.03
2023-03-03T05:57:51.398Z,14.70
2023-03-03T06:00:19.653Z,14.20
2023-03-03T06:02:47.730Z,14.57
2023-03-03T06:05:15.750Z,14.20
2023-03-03T06:07:43.508Z,15.67
2023-03-03T06:10:14.538Z,15.87
2023-03-03T06:12:42.744Z,12.47
2023-03-03T06:15:11.441Z,17.80
2023-03-03T06:17:39.331Z,15.57
2023-03-03T06:20:08.113Z,13.70
2023-03-03T06:22:35.981Z,12.63
2023-03-03T06:25:03.826Z,17.83
2023-03-03T06:27:38.522Z,14.57
2023-03-03T06:30:06.917Z,12.57
2023-03-03T06:32:35.015Z,14.57
2023-03-03T06:35:03.260Z,14.10
2023-03-03T06:37:32.367Z,16.40
2023-03-03T06:40:00.446Z,14.63
2023-03-03T06:42:28.323Z,13.63
2023-03-03T06:44:57.935Z,13.67
2023-03-03T06:47:25.765Z,15.60
2023-03-03T06:49:53.460Z,12.97
2023-03-03T06:52:23.844Z,12.87
2023-03-03T06:54:52.104Z,12.50
2023-03-03T06:57:24.493Z,13.23
2023-03-03T06:59:53.802Z,12.70
2023-03-03T07:02:24.024Z,12.97
2023-03-03T07:04:52.786Z,16.50
2023-03-03T07:07:21.802Z,13.50
2023-03-03T07:09:50.334Z,14.23
2023-03-03T07:12:20.079Z,13.70
2023-03-03T07:14:51.732Z,12.73
2023-03-03T07:17:20.833Z,13.37
2023-03-03T07:19:50.340Z,12.73
2023-03-03T07:22:19.096Z,11.17
2023-03-03T07:24:47.565Z,16.10
2023-03-03T07:27:18.184Z,13.50
2023-03-03T07:29:47.933Z,12.53
2023-03-03T07:32:22.643Z,15.00
2023-03-03T07:34:53.858Z,13.13
2023-03-03T07:37:24.321Z,11.20
2023-03-03T07:39:52.304Z,12.27
2023-03-03T07:42:23.192Z,11.33
2023-03-03T07:44:54.311Z,11.33
2023-03-03T07:47:23.876Z,11.40
2023-03-03T07:49:55.136Z,12.43
2023-03-03T07:52:27.904Z,12.93
2023-03-03T07:54:56.951Z,15.30
2023-03-03T07:57:26.314Z,15.50
2023-03-03T07:59:55.000Z,14.53
2023-03-03T08:02:44.072Z,11.90
2023-03-03T08:05:29.533Z,12.20
2023-03-03T08:08:04.053Z,15.07
2023-03-03T08:10:36.808Z,12.17
2023-03-03T08:13:10.969Z,12.37
2023-03-03T08:15:39.215Z,11.43
2023-03-03T08:18:18.223Z,14.00
2023-03-03T08:20:47.280Z,13.83
2023-03-03T08:23:17.047Z,12.97
2023-03-03T08:25:45.255Z,14.77
2023-03-03T08:28:14.248Z,12.40
2023-03-03T08:30:42.793Z,13.70
2023-03-03T08:33:10.806Z,14.33
2023-03-03T08:35:38.603Z,14.57
2023-03-03T08:38:06.577Z,13.43
2023-03-03T08:40:35.903Z,12.93
2023-03-03T08:43:03.653Z,13.97
2023-03-03T08:45:31.627Z,15.60
2023-03-03T08:48:00.290Z,15.80
2023-03-03T08:50:28.647Z,16.70
2023-03-03T08:52:56.656Z,12.23
2023-03-03T08:55:24.617Z,10.23
2023-03-03T08:57:53.835Z,11.43
2023-03-03T09:00:22.230Z,10.60
2023-03-03T09:02:53.445Z,11.23
2023-03-03T09:05:22.092Z,10.27
2023-03-03T09:07:51.639Z,9.63
2023-03-03T09:10:23.354Z,13.07
2023-03-03T09:12:51.467Z,13.13
2023-03-03T09:15:22.996Z,12.90
2023-03-03T09:17:51.315Z,11.80
2023-03-03T09:20:23.608Z,9.43
2023-03-03T09:22:51.655Z,10.93
2023-03-03T09:25:24.254Z,12.37
2023-03-03T09:27:53.917Z,7.83
2023-03-03T09:30:32.944Z,12.70
2023-03-03T09:33:00.879Z,10.37
2023-03-03T09:35:37.052Z,11.00
2023-03-03T09:38:14.625Z,11.47
2023-03-03T09:40:53.651Z,8.53
2023-03-03T09:43:24.296Z,12.30
2023-03-03T09:45:58.852Z,10.60
2023-03-03T09:48:45.560Z,11.33
2023-03-03T09:51:22.898Z,10.23
2023-03-03T09:53:59.652Z,10.40
2023-03-03T09:56:32.220Z,9.27
2023-03-03T09:59:08.567Z,9.93
2023-03-03T10:01:51.227Z,8.87
2023-03-03T10:04:29.941Z,11.20
2023-03-03T10:07:02.426Z,8.10
2023-03-03T10:09:38.938Z,12.47
2023-03-03T10:12:11.052Z,9.60
2023-03-03T10:14:48.519Z,7.90
2023-03-03T10:17:23.530Z,11.23
2023-03-03T10:20:01.522Z,8.63
2023-03-03T10:22:32.753Z,9.40
2023-03-03T10:25:05.802Z,8.30
2023-03-03T10:27:40.283Z,9.30
2023-03-03T10:30:14.895Z,10.93
2023-03-03T10:32:51.968Z,10.70
2023-03-03T10:35:24.500Z,9.70
2023-03-03T10:37:58.139Z,10.53
2023-03-03T10:40:30.167Z,10.00
2023-03-03T10:43:29.728Z,8.80
2023-03-03T10:46:13.986Z,9.37
2023-03-03T10:48:53.674Z,9.37
2023-03-03T10:51:28.267Z,12.80
2023-03-03T10:54:01.975Z,10.37
2023-03-03T10:56:51.791Z,12.40
2023-03-03T10:59:31.500Z,11.13
2023-03-03T11:02:01.052Z,11.10
2023-03-03T11:04:47.285Z,12.27
2023-03-03T11:07:20.004Z,12.27
2023-03-03T11:09:54.801Z,13.30
2023-03-03T11:12:28.847Z,11.43
2023-03-03T11:15:02.212Z,9.80
2023-03-03T11:17:36.571Z,11.23
2023-03-03T11:20:09.514Z,13.30
2023-03-03T11:22:44.880Z,12.83
2023-03-03T11:25:19.827Z,13.37
2023-03-03T11:28:06.454Z,15.77
2023-03-03T11:30:45.293Z,13.87
2023-03-03T11:33:18.116Z,12.77
2023-03-03T11:35:47.688Z,14.80
2023-03-03T11:38:31.542Z,15.93
2023-03-03T11:41:04.983Z,15.97
2023-03-03T11:43:37.296Z,15.97
2023-03-03T11:46:08.325Z,16.13
2023-03-03T11:48:39.558Z,12.70
2023-03-03T11:51:08.607Z,11.10
2023-03-03T11:53:52.529Z,13.07
2023-03-03T11:56:24.072Z,12.30
2023-03-03T11:58:55.950Z,13.00
2023-03-03T12:01:24.553Z,15.03
2023-03-03T12:03:58.141Z,13.83
2023-03-03T12:06:31.502Z,11.70
2023-03-03T12:09:04.628Z,15.73
2023-03-03T12:11:37.972Z,19.83
2023-03-03T12:14:11.491Z,13.70
2023-03-03T12:16:48.027Z,16.27
2023-03-03T12:19:37.066Z,16.50
2023-03-03T12:22:17.036Z,17.93
2023-03-03T12:25:04.097Z,15.93
2023-03-03T12:27:36.990Z,18.10
2023-03-03T12:30:10.927Z,16.53
2023-03-03T12:32:48.144Z,16.77
2023-03-03T12:35:20.486Z,19.90
2023-03-03T12:37:51.103Z,17.20
2023-03-03T12:40:20.930Z,19.50
2023-03-03T12:42:59.277Z,17.07
2023-03-03T12:45:33.454Z,19.97
2023-03-03T12:48:02.364Z,15.53
2023-03-03T12:50:36.501Z,17.63
2023-03-03T12:53:12.877Z,19.10
2023-03-03T12:55:45.815Z,18.13
2023-03-03T12:58:24.710Z,19.13
2023-03-03T13:00:59.978Z,17.50
2023-03-03T13:03:39.022Z,18.83
2023-03-03T13:06:21.417Z,20.10
2023-03-03T13:08:55.442Z,17.53
2023-03-03T13:11:54.388Z,19.07
2023-03-03T13:14:28.919Z,19.63
2023-03-03T13:17:02.650Z,14.70
2023-03-03T13:19:34.818Z,17.70
2023-03-03T13:22:09.212Z,18.47
2023-03-03T13:24:42.343Z,13.40
2023-03-03T13:27:13.149Z,16.27
2023-03-03T13:29:43.439Z,15.63
2023-03-03T13:32:13.606Z,15.97
2023-03-03T13:34:44.931Z,16.97
2023-03-03T13:37:15.954Z,11.50
2023-03-03T13:39:46.218Z,11.27
2023-03-03T13:42:19.137Z,10.13
2023-03-03T13:44:50.036Z,10.70
2023-03-03T13:47:22.593Z,10.77
2023-03-03T13:50:06.118Z,10.27
2023-03-03T13:52:35.587Z,11.63
2023-03-03T13:55:09.544Z,8.30
2023-03-03T13:57:44.753Z,8.33
2023-03-03T14:00:27.662Z,8.47
2023-03-03T14:03:05.139Z,8.13
2023-03-03T14:05:36.698Z,8.27
2023-03-03T14:08:11.802Z,9.77
2023-03-03T14:10:43.287Z,9.80
2023-03-03T14:13:14.334Z,13.33
2023-03-03T14:15:46.022Z,12.40
2023-03-03T14:18:20.901Z,13.10
2023-03-03T14:20:51.307Z,16.20
2023-03-03T14:23:21.336Z,15.60
2023-03-03T14:25:54.420Z,17.60
2023-03-03T14:28:24.040Z,19.27
2023-03-03T14:30:53.812Z,19.97
2023-03-03T14:33:27.593Z,20.83
2023-03-03T14:36:03.507Z,22.70
2023-03-03T14:38:39.121Z,20.97
2023-03-03T14:41:12.518Z,21.90
2023-03-03T14:43:41.877Z,21.00
2023-03-03T14:46:30.781Z,22.40
2023-03-03T14:49:01.393Z,24.77
2023-03-03T14:51:31.301Z,22.87
2023-03-03T14:53:59.143Z,21.10
2023-03-03T14:56:27.938Z,25.13
2023-03-03T14:58:56.294Z,26.03
2023-03-03T15:01:25.560Z,22.93
2023-03-03T15:04:02.014Z,20.13
2023-03-03T15:06:32.433Z,22.37
2023-03-03T15:09:21.632Z,23.17
2023-03-03T15:11:52.353Z,23.33
2023-03-03T15:14:22.842Z,21.70
2023-03-03T15:16:50.613Z,22.80
2023-03-03T15:19:32.322Z,21.07
2023-03-03T15:22:03.016Z,18.27
2023-03-03T15:24:36.303Z,21.53
2023-03-03T15:27:06.513Z,19.40
2023-03-03T15:29:36.462Z,17.97
2023-03-03T15:32:10.016Z,21.77
2023-03-03T15:34:42.027Z,19.67
2023-03-03T15:37:16.760Z,19.27
2023-03-03T15:39:48.653Z,17.00
2023-03-03T15:42:21.773Z,20.10
2023-03-03T15:44:57.601Z,17.53
2023-03-03T15:47:40.477Z,17.33
2023-03-03T15:50:18.552Z,16.13
2023-03-03T15:52:57.636Z,13.27
2023-03-03T15:55:31.567Z,12.07
2023-03-03T15:58:06.242Z,12.90
2023-03-03T16:00:39.100Z,11.57
2023-03-03T16:03:12.627Z,12.23
2023-03-03T16:05:46.560Z,13.90
2023-03-03T16:08:16.024Z,16.30
2023-03-03T16:10:48.449Z,17.13
2023-03-03T16:13:23.296Z,17.33
2023-03-03T16:15:56.424Z,20.20
2023-03-03T16:18:30.378Z,22.70
2023-03-03T16:21:05.284Z,21.37
2023-03-03T16:23:37.602Z,16.93
2023-03-03T16:26:09.034Z,17.73
2023-03-03T16:28:45.215Z,18.00
2023-03-03T16:31:15.693Z,16.43
2023-03-03T16:33:45.627Z,23.97
2023-03-03T16:36:23.247Z,25.87
2023-03-03T16:38:53.547Z,25.73
2023-03-03T16:41:26.065Z,24.43
2023-03-03T16:43:59.309Z,23.10
2023-03-03T16:46:32.839Z,23.27
2023-03-03T16:49:06.439Z,25.50
2023-03-03T16:51:40.423Z,25.30
2023-03-03T16:54:10.665Z,24.20
2023-03-03T16:56:42.503Z,26.87
2023-03-03T16:59:18.285Z,25.53
2023-03-03T17:01:49.290Z,20.27
2023-03-03T17:04:21.762Z,22.07
2023-03-03T17:06:54.954Z,20.70
2023-03-03T17:09:36.307Z,22.13
2023-03-03T17:12:15.160Z,23.43
2023-03-03T17:14:53.120Z,24.37
2023-03-03T17:17:27.553Z,23.17
2023-03-03T17:20:01.983Z,22.70
2023-03-03T17:22:41.529Z,28.67
2023-03-03T17:25:14.340Z,25.40
2023-03-03T17:27:48.724Z,26.33
2023-03-03T17:30:22.498Z,28.60
2023-03-03T17:32:58.437Z,30.10
2023-03-03T17:35:32.910Z,24.40
2023-03-03T17:38:06.473Z,21.70
2023-03-03T17:40:47.403Z,19.83
2023-03-03T17:43:17.417Z,13.43
2023-03-03T17:45:47.305Z,19.47
2023-03-03T17:48:31.768Z,15.13
2023-03-03T17:51:09.952Z,17.67
2023-03-03T17:53:43.110Z,13.73
2023-03-03T17:56:15.752Z,14.70
2023-03-03T17:58:59.369Z,10.17
2023-03-03T18:01:30.814Z,10.47
2023-03-03T18:04:06.396Z,12.37
2023-03-03T18:06:43.840Z,11.20
2023-03-03T18:09:18.151Z,15.30
2023-03-03T18:12:04.990Z,13.63
2023-03-03T18:14:51.753Z,12.00
2023-03-03T18:17:27.409Z,12.70
2023-03-03T18:20:03.007Z,14.23
2023-03-03T18:22:32.993Z,11.77
2023-03-03T18:25:07.018Z,12.07
2023-03-03T18:27:36.162Z,12.50
2023-03-03T18:30:25.142Z,11.87
2023-03-03T18:33:11.903Z,14.70
2023-03-03T18:35:40.589Z,12.97
2023-03-03T18:38:25.901Z,13.83
2023-03-03T18:40:57.928Z,11.20
2023-03-03T18:43:42.328Z,13.90
2023-03-03T18:46:10.668Z,12.97
2023-03-03T18:48:50.173Z,16.67
2023-03-03T18:51:32.860Z,12.20
2023-03-03T18:54:02.494Z,11.97
2023-03-03T18:56:45.024Z,13.73
2023-03-03T18:59:34.241Z,12.63
2023-03-03T19:02:11.422Z,13.53
2023-03-03T19:04:40.254Z,11.87
2023-03-03T19:07:26.522Z,11.70
2023-03-03T19:09:58.415Z,12.63
2023-03-03T19:12:51.931Z,12.93
2023-03-03T19:15:44.186Z,10.77
2023-03-03T19:18:17.621Z,10.97
2023-03-03T19:20:48.284Z,13.00
2023-03-03T19:23:17.030Z,13.70
2023-03-03T19:25:45.283Z,12.40
2023-03-03T19:28:32.689Z,13.70
2023-03-03T19:31:04.862Z,11.53
2023-03-03T19:33:47.203Z,20.47
2023-03-03T19:36:18.645Z,21.80
2023-03-03T19:38:52.997Z,18.70
2023-03-03T19:41:24.190Z,19.93
2023-03-03T19:43:57.511Z,19.33
2023-03-03T19:46:34.262Z,24.70
2023-03-03T19:49:05.632Z,25.67
2023-03-03T19:51:36.143Z,24.97
2023-03-03T19:54:09.786Z,20.90
2023-03-03T19:56:42.114Z,17.03
2023-03-03T19:59:20.861Z,15.87
2023-03-03T20:01:54.463Z,16.40
2023-03-03T20:04:43.339Z,21.80
2023-03-03T20:07:17.170Z,22.70
2023-03-03T20:09:57.227Z,23.33
2023-03-03T20:12:40.652Z,24.27
2023-03-03T20:15:14.252Z,22.33
2023-03-03T20:17:51.176Z,23.10
2023-03-03T20:20:36.756Z,19.17
2023-03-03T20:23:08.647Z,20.70
2023-03-03T20:25:37.368Z,20.87
2023-03-03T20:28:08.674Z,17.37
2023-03-03T20:30:44.619Z,19.70
2023-03-03T20:33:20.145Z,16.53
2023-03-03T20:35:54.459Z,15.50
2023-03-03T20:38:25.245Z,18.83
2023-03-03T20:40:57.605Z,18.23
2023-03-03T20:43:36.117Z,19.43
2023-03-03T20:46:09.952Z,18.67
2023-03-03T20:48:52.811Z,16.53
2023-03-03T20:51:26.119Z,19.10
2023-03-03T20:54:00.408Z,16.80
2023-03-03T20:56:33.258Z,18.00
2023-03-03T20:59:06.093Z,17.10
2023-03-03T21:01:37.450Z,16.30
2023-03-03T21:04:22.024Z,11.83
2023-03-03T21:06:50.288Z,14.57
2023-03-03T21:09:26.262Z,16.97
2023-03-03T21:11:54.664Z,12.37
2023-03-03T21:14:25.454Z,15.27
2023-03-03T21:16:57.294Z,13.63
2023-03-03T21:19:26.646Z,12.23
2023-03-03T21:21:55.364Z,11.83
2023-03-03T21:24:23.721Z,9.50
2023-03-03T21:26:52.821Z,9.70
2023-03-03T21:29:21.779Z,10.73
2023-03-03T21:31:50.308Z,8.57
2023-03-03T21:34:35.833Z,7.83
2023-03-03T21:37:06.183Z,8.00
2023-03-03T21:39:34.853Z,6.97
2023-03-03T21:42:06.697Z,7.03
2023-03-03T21:44:36.125Z,6.57
2023-03-03T21:47:04.815Z,6.83
2023-03-03T21:49:32.723Z,8.03
2023-03-03T21:52:01.267Z,8.43
2023-03-03T21:54:33.028Z,7.00
2023-03-03T21:57:00.790Z,8.10
2023-03-03T21:59:28.710Z,7.97
2023-03-03T22:01:56.563Z,7.83
2023-03-03T22:04:25.791Z,7.10
2023-03-03T22:06:54.021Z,7.53
2023-03-03T22:09:21.881Z,8.70
2023-03-03T22:11:51.597Z,8.70
2023-03-03T22:14:19.329Z,9.47
2023-03-03T22:16:47.421Z,9.30
2023-03-03T22:19:15.555Z,9.33
2023-03-03T22:21:43.332Z,9.87
2023-03-03T22:24:11.450Z,9.40
2023-03-03T22:26:39.569Z,8.80
2023-03-03T22:29:08.796Z,7.53
2023-03-03T22:31:36.756Z,7.53
2023-03-03T22:34:05.045Z,7.83
2023-03-03T22:36:32.882Z,7.60
2023-03-03T22:39:01.074Z,7.77
2023-03-03T22:41:28.952Z,10.13
2023-03-03T22:43:57.014Z,9.27
2023-03-03T22:46:26.537Z,9.83
2023-03-03T22:48:54.435Z,8.30
2023-03-03T22:51:23.699Z,9.20
2023-03-03T22:53:51.810Z,9.57
2023-03-03T22:56:20.020Z,9.97
2023-03-03T22:58:47.913Z,10.10
2023-03-03T23:01:16.172Z,8.90
2023-03-03T23:03:45.498Z,8.90
2023-03-03T23:06:13.327Z,9.83
2023-03-03T23:08:41.078Z,10.27
2023-03-03T23:11:09.168Z,7.17
2023-03-03T23:13:38.277Z,8.80
2023-03-03T23:16:06.709Z,9.63
2023-03-03T23:18:34.844Z,10.80
2023-03-03T23:21:04.971Z,9.63
2023-03-03T23:23:32.817Z,10.87
2023-03-03T23:26:01.040Z,12.67
2023-03-03T23:28:28.820Z,12.67
2023-03-03T23:30:56.624Z,14.23
2023-03-03T23:33:25.743Z,13.47
2023-03-03T23:35:53.827Z,13.90
2023-03-03T23:38:23.231Z,15.63
2023-03-03T23:40:51.130Z,14.83
2023-03-03T23:43:19.095Z,15.90
2023-03-03T23:45:46.941Z,13.00
2023-03-03T23:48:14.967Z,16.63
2023-03-03T23:50:43.047Z,15.47
2023-03-03T23:53:10.816Z,13.10
2023-03-03T23:55:40.106Z,16.87
2023-03-03T23:58:08.236Z,14.13
